sensor_id;sensor_type;location;lat;lon;timestamp;pressure;altitude;pressure_sealevel;temperature
19061;BMP280;9663;48.996;8.334;2024-03-02T00:02:14;99074.69;;;12.12
19061;BMP280;9663;48.996;8.334;2024-03-02T00:04:40;99071.31;;;12.13
19061;BMP280;9663;48.996;8.334;2024-03-02T00:07:07;99065.34;;;12.14
19061;BMP280;9663;48.996;8.334;2024-03-02T00:09:33;99061.09;;;12.14
19061;BMP280;9663;48.996;8.334;2024-03-02T00:12:00;99061.97;;;12.13
19061;BMP280;9663;48.996;8.334;2024-03-02T00:14:29;99064.47;;;12.15
19061;BMP280;9663;48.996;8.334;2024-03-02T00:16:56;99057.72;;;12.14
19061;BMP280;9663;48.996;8.334;2024-03-02T00:19:22;99061.88;;;12.16
19061;BMP280;9663;48.996;8.334;2024-03-02T00:21:47;99059.34;;;12.16
19061;BMP280;9663;48.996;8.334;2024-03-02T00:24:34;99070.69;;;12.05
19061;BMP280;9663;48.996;8.334;2024-03-02T00:27:01;99060.78;;;11.96
19061;BMP280;9663;48.996;8.334;2024-03-02T00:29:29;99066.09;;;11.87
19061;BMP280;9663;48.996;8.334;2024-03-02T00:31:55;99063.75;;;11.81
19061;BMP280;9663;48.996;8.334;2024-03-02T00:34:22;99064.66;;;11.79
19061;BMP280;9663;48.996;8.334;2024-03-02T00:36:48;99068.13;;;11.76
19061;BMP280;9663;48.996;8.334;2024-03-02T00:39:16;99067.31;;;11.74
19061;BMP280;9663;48.996;8.334;2024-03-02T00:41:42;99066.53;;;11.72
19061;BMP280;9663;48.996;8.334;2024-03-02T00:44:13;99070.78;;;11.72
19061;BMP280;9663;48.996;8.334;2024-03-02T00:46:42;99076.88;;;11.66
19061;BMP280;9663;48.996;8.334;2024-03-02T00:49:18;99077.09;;;11.57
19061;BMP280;9663;48.996;8.334;2024-03-02T00:51:51;99085.88;;;11.45
19061;BMP280;9663;48.996;8.334;2024-03-02T00:54:25;99096.34;;;11.33
19061;BMP280;9663;48.996;8.334;2024-03-02T00:56:55;99102.56;;;11.21
19061;BMP280;9663;48.996;8.334;2024-03-02T00:59:22;99104.56;;;11.09
19061;BMP280;9663;48.996;8.334;2024-03-02T01:01:49;99103.94;;;11.00
19061;BMP280;9663;48.996;8.334;2024-03-02T01:04:15;99097.34;;;10.93
19061;BMP280;9663;48.996;8.334;2024-03-02T01:06:42;99096.50;;;10.92
19061;BMP280;9663;48.996;8.334;2024-03-02T01:09:09;99093.94;;;10.94
19061;BMP280;9663;48.996;8.334;2024-03-02T01:11:34;99094.66;;;10.99
19061;BMP280;9663;48.996;8.334;2024-03-02T01:14:00;99099.63;;;11.03
19061;BMP280;9663;48.996;8.334;2024-03-02T01:16:26;99095.31;;;11.07
19061;BMP280;9663;48.996;8.334;2024-03-02T01:18:51;99096.94;;;11.10
19061;BMP280;9663;48.996;8.334;2024-03-02T01:21:17;99094.25;;;11.15
19061;BMP280;9663;48.996;8.334;2024-03-02T01:23:43;99097.53;;;11.18
19061;BMP280;9663;48.996;8.334;2024-03-02T01:26:09;99089.03;;;11.21
19061;BMP280;9663;48.996;8.334;2024-03-02T01:28:34;99088.13;;;11.23
19061;BMP280;9663;48.996;8.334;2024-03-02T01:31:00;99084.66;;;11.27
19061;BMP280;9663;48.996;8.334;2024-03-02T01:33:27;99071.91;;;11.29
19061;BMP280;9663;48.996;8.334;2024-03-02T01:35:53;99078.59;;;11.31
19061;BMP280;9663;48.996;8.334;2024-03-02T01:38:19;99087.09;;;11.32
19061;BMP280;9663;48.996;8.334;2024-03-02T01:40:45;99087.09;;;11.32
19061;BMP280;9663;48.996;8.334;2024-03-02T01:43:11;99088.72;;;11.33
19061;BMP280;9663;48.996;8.334;2024-03-02T01:45:37;99074.31;;;11.33
19061;BMP280;9663;48.996;8.334;2024-03-02T01:48:05;99072.63;;;11.34
19061;BMP280;9663;48.996;8.334;2024-03-02T01:50:33;99065.03;;;11.34
19061;BMP280;9663;48.996;8.334;2024-03-02T01:52:59;99073.47;;;11.34
19061;BMP280;9663;48.996;8.334;2024-03-02T01:55:26;99067.53;;;11.35
19061;BMP280;9663;48.996;8.334;2024-03-02T01:57:53;99070.06;;;11.35
19061;BMP280;9663;48.996;8.334;2024-03-02T02:00:22;99068.34;;;11.36
19061;BMP280;9663;48.996;8.334;2024-03-02T02:02:51;99060.81;;;11.33
19061;BMP280;9663;48.996;8.334;2024-03-02T02:05:17;99052.38;;;11.32
19061;BMP280;9663;48.996;8.334;2024-03-02T02:07:43;99049.03;;;11.30
19061;BMP280;9663;48.996;8.334;2024-03-02T02:10:10;99042.28;;;11.29
19061;BMP280;9663;48.996;8.334;2024-03-02T02:12:38;99053.25;;;11.30
19061;BMP280;9663;48.996;8.334;2024-03-02T02:15:21;99045.78;;;11.25
19061;BMP280;9663;48.996;8.334;2024-03-02T02:17:47;99049.94;;;11.28
19061;BMP280;9663;48.996;8.334;2024-03-02T02:20:13;99052.50;;;11.26
19061;BMP280;9663;48.996;8.334;2024-03-02T02:22:39;99039.84;;;11.25
19061;BMP280;9663;48.996;8.334;2024-03-02T02:25:05;99048.41;;;11.22
19061;BMP280;9663;48.996;8.334;2024-03-02T02:27:31;99044.28;;;11.17
19061;BMP280;9663;48.996;8.334;2024-03-02T02:29:57;99061.41;;;11.10
19061;BMP280;9663;48.996;8.334;2024-03-02T02:32:22;99054.75;;;11.05
19061;BMP280;9663;48.996;8.334;2024-03-02T02:34:52;99049.84;;;10.99
19061;BMP280;9663;48.996;8.334;2024-03-02T02:37:18;99044.06;;;10.94
19061;BMP280;9663;48.996;8.334;2024-03-02T02:39:44;99047.53;;;10.90
19061;BMP280;9663;48.996;8.334;2024-03-02T02:42:12;99039.13;;;10.88
19061;BMP280;9663;48.996;8.334;2024-03-02T02:44:37;99036.63;;;10.87
19061;BMP280;9663;48.996;8.334;2024-03-02T02:47:03;99036.69;;;10.84
19061;BMP280;9663;48.996;8.334;2024-03-02T02:49:29;99035.88;;;10.83
19061;BMP280;9663;48.996;8.334;2024-03-02T02:51:54;99034.19;;;10.82
19061;BMP280;9663;48.996;8.334;2024-03-02T02:54:20;99033.41;;;10.80
19061;BMP280;9663;48.996;8.334;2024-03-02T02:56:45;99025.03;;;10.77
19061;BMP280;9663;48.996;8.334;2024-03-02T02:59:11;99027.63;;;10.74
19061;BMP280;9663;48.996;8.334;2024-03-02T03:01:37;99025.16;;;10.71
19061;BMP280;9663;48.996;8.334;2024-03-02T03:04:03;99007.47;;;10.69
19061;BMP280;9663;48.996;8.334;2024-03-02T03:06:28;99015.03;;;10.71
19061;BMP280;9663;48.996;8.334;2024-03-02T03:08:54;99008.28;;;10.71
19061;BMP280;9663;48.996;8.334;2024-03-02T03:11:20;99007.41;;;10.71
19061;BMP280;9663;48.996;8.334;2024-03-02T03:13:45;99016.69;;;10.72
19061;BMP280;9663;48.996;8.334;2024-03-02T03:16:11;99010.03;;;10.69
19061;BMP280;9663;48.996;8.334;2024-03-02T03:18:36;99008.44;;;10.64
19061;BMP280;9663;48.996;8.334;2024-03-02T03:21:03;99011.94;;;10.60
19061;BMP280;9663;48.996;8.334;2024-03-02T03:23:29;99007.75;;;10.58
19061;BMP280;9663;48.996;8.334;2024-03-02T03:25:55;99006.16;;;10.54
19061;BMP280;9663;48.996;8.334;2024-03-02T03:28:20;99007.88;;;10.53
19061;BMP280;9663;48.996;8.334;2024-03-02T03:30:46;99007.09;;;10.50
19061;BMP280;9663;48.996;8.334;2024-03-02T03:33:11;99007.25;;;10.44
19061;BMP280;9663;48.996;8.334;2024-03-02T03:35:37;99008.31;;;10.35
19061;BMP280;9663;48.996;8.334;2024-03-02T03:38:03;99009.38;;;10.25
19061;BMP280;9663;48.996;8.334;2024-03-02T03:40:29;99013.78;;;10.18
19061;BMP280;9663;48.996;8.334;2024-03-02T03:42:54;99014.81;;;10.09
19061;BMP280;9663;48.996;8.334;2024-03-02T03:45:22;99011.44;;;10.07
19061;BMP280;9663;48.996;8.334;2024-03-02T03:47:47;99006.53;;;10.01
19061;BMP280;9663;48.996;8.334;2024-03-02T03:50:13;99009.09;;;10.00
19061;BMP280;9663;48.996;8.334;2024-03-02T03:52:39;99009.13;;;9.98
19061;BMP280;9663;48.996;8.334;2024-03-02T03:55:05;99005.75;;;9.99
19061;BMP280;9663;48.996;8.334;2024-03-02T03:57:31;99004.84;;;10.00
19061;BMP280;9663;48.996;8.334;2024-03-02T03:59:56;99009.84;;;10.03
19061;BMP280;9663;48.996;8.334;2024-03-02T04:02:22;99014.06;;;10.04
19061;BMP280;9663;48.996;8.334;2024-03-02T04:04:47;99005.63;;;10.04
19061;BMP280;9663;48.996;8.334;2024-03-02T04:07:13;99007.34;;;10.02
19061;BMP280;9663;48.996;8.334;2024-03-02T04:09:39;99007.38;;;10.00
19061;BMP280;9663;48.996;8.334;2024-03-02T04:12:05;99013.31;;;10.01
19061;BMP280;9663;48.996;8.334;2024-03-02T04:14:30;99009.09;;;10.00
19061;BMP280;9663;48.996;8.334;2024-03-02T04:16:56;98997.22;;;10.02
19061;BMP280;9663;48.996;8.334;2024-03-02T04:19:21;99012.41;;;10.03
19061;BMP280;9663;48.996;8.334;2024-03-02T04:21:47;99011.56;;;10.03
19061;BMP280;9663;48.996;8.334;2024-03-02T04:24:13;99017.56;;;9.97
19061;BMP280;9663;48.996;8.334;2024-03-02T04:26:38;99024.44;;;9.92
19061;BMP280;9663;48.996;8.334;2024-03-02T04:29:04;99022.03;;;9.86
19061;BMP280;9663;48.996;8.334;2024-03-02T04:31:29;99028.00;;;9.82
19061;BMP280;9663;48.996;8.334;2024-03-02T04:33:55;99033.16;;;9.78
19061;BMP280;9663;48.996;8.334;2024-03-02T04:36:21;99044.31;;;9.70
19061;BMP280;9663;48.996;8.334;2024-03-02T04:38:47;99048.75;;;9.59
19061;BMP280;9663;48.996;8.334;2024-03-02T04:41:13;99044.72;;;9.49
19061;BMP280;9663;48.996;8.334;2024-03-02T04:43:39;99046.56;;;9.39
19061;BMP280;9663;48.996;8.334;2024-03-02T04:46:05;99044.94;;;9.37
19061;BMP280;9663;48.996;8.334;2024-03-02T04:48:32;99044.94;;;9.38
19061;BMP280;9663;48.996;8.334;2024-03-02T04:50:58;99046.56;;;9.41
19061;BMP280;9663;48.996;8.334;2024-03-02T04:53:24;99047.38;;;9.41
19061;BMP280;9663;48.996;8.334;2024-03-02T04:55:49;99060.00;;;9.43
19061;BMP280;9663;48.996;8.334;2024-03-02T04:58:35;99058.22;;;9.48
19061;BMP280;9663;48.996;8.334;2024-03-02T05:01:01;99063.25;;;9.49
19061;BMP280;9663;48.996;8.334;2024-03-02T05:03:26;99063.19;;;9.54
19061;BMP280;9663;48.996;8.334;2024-03-02T05:05:52;99064.78;;;9.58
19061;BMP280;9663;48.996;8.334;2024-03-02T05:08:18;99060.47;;;9.61
19061;BMP280;9663;48.996;8.334;2024-03-02T05:10:43;99056.22;;;9.65
19061;BMP280;9663;48.996;8.334;2024-03-02T05:13:09;99057.81;;;9.69
19061;BMP280;9663;48.996;8.334;2024-03-02T05:15:35;99048.50;;;9.71
19061;BMP280;9663;48.996;8.334;2024-03-02T05:18:00;99049.28;;;9.73
19061;BMP280;9663;48.996;8.334;2024-03-02T05:20:28;99065.31;;;9.75
19061;BMP280;9663;48.996;8.334;2024-03-02T05:22:53;99059.41;;;9.73
19061;BMP280;9663;48.996;8.334;2024-03-02T05:25:19;99061.13;;;9.72
19061;BMP280;9663;48.996;8.334;2024-03-02T05:27:45;99065.38;;;9.72
19061;BMP280;9663;48.996;8.334;2024-03-02T05:30:12;99070.47;;;9.70
19061;BMP280;9663;48.996;8.334;2024-03-02T05:32:37;99063.69;;;9.71
19061;BMP280;9663;48.996;8.334;2024-03-02T05:35:04;99062.84;;;9.72
19061;BMP280;9663;48.996;8.334;2024-03-02T05:37:30;99068.69;;;9.74
19061;BMP280;9663;48.996;8.334;2024-03-02T05:39:56;99073.72;;;9.77
19061;BMP280;9663;48.996;8.334;2024-03-02T05:42:22;99065.22;;;9.77
19061;BMP280;9663;48.996;8.334;2024-03-02T05:44:47;99059.34;;;9.77
19061;BMP280;9663;48.996;8.334;2024-03-02T05:47:13;99073.72;;;9.77
19061;BMP280;9663;48.996;8.334;2024-03-02T05:49:38;99067.91;;;9.72
19061;BMP280;9663;48.996;8.334;2024-03-02T05:52:04;99062.09;;;9.67
19061;BMP280;9663;48.996;8.334;2024-03-02T05:54:30;99062.97;;;9.64
19061;BMP280;9663;48.996;8.334;2024-03-02T05:56:56;99062.19;;;9.61
19061;BMP280;9663;48.996;8.334;2024-03-02T05:59:21;99061.41;;;9.59
19061;BMP280;9663;48.996;8.334;2024-03-02T06:01:48;99056.38;;;9.56
19061;BMP280;9663;48.996;8.334;2024-03-02T06:04:16;99059.75;;;9.56
19061;BMP280;9663;48.996;8.334;2024-03-02T06:06:42;99055.50;;;9.58
19061;BMP280;9663;48.996;8.334;2024-03-02T06:09:08;99069.00;;;9.59
19061;BMP280;9663;48.996;8.334;2024-03-02T06:11:35;99070.72;;;9.57
19061;BMP280;9663;48.996;8.334;2024-03-02T06:14:02;99074.19;;;9.51
19061;BMP280;9663;48.996;8.334;2024-03-02T06:16:27;99080.22;;;9.44
19061;BMP280;9663;48.996;8.334;2024-03-02T06:18:53;99086.28;;;9.36
19061;BMP280;9663;48.996;8.334;2024-03-02T06:21:20;99084.72;;;9.29
19061;BMP280;9663;48.996;8.334;2024-03-02T06:23:46;99076.41;;;9.23
19061;BMP280;9663;48.996;8.334;2024-03-02T06:26:12;99077.28;;;9.20
19061;BMP280;9663;48.996;8.334;2024-03-02T06:28:38;99078.97;;;9.21
19061;BMP280;9663;48.996;8.334;2024-03-02T06:31:04;99079.75;;;9.23
19061;BMP280;9663;48.996;8.334;2024-03-02T06:33:29;99077.19;;;9.26
19061;BMP280;9663;48.996;8.334;2024-03-02T06:35:55;99077.16;;;9.28
19061;BMP280;9663;48.996;8.334;2024-03-02T06:38:21;99077.91;;;9.33
19061;BMP280;9663;48.996;8.334;2024-03-02T06:40:46;99077.81;;;9.38
19061;BMP280;9663;48.996;8.334;2024-03-02T06:43:12;99087.78;;;9.46
19061;BMP280;9663;48.996;8.334;2024-03-02T06:45:38;99074.19;;;9.50
19061;BMP280;9663;48.996;8.334;2024-03-02T06:48:04;99080.06;;;9.53
19061;BMP280;9663;48.996;8.334;2024-03-02T06:50:29;99083.34;;;9.58
19061;BMP280;9663;48.996;8.334;2024-03-02T06:52:55;99069.00;;;9.59
19061;BMP280;9663;48.996;8.334;2024-03-02T06:55:24;99058.03;;;9.58
19061;BMP280;9663;48.996;8.334;2024-03-02T06:57:53;99064.72;;;9.61
19061;BMP280;9663;48.996;8.334;2024-03-02T07:00:19;99070.53;;;9.66
19061;BMP280;9663;48.996;8.334;2024-03-02T07:02:46;99062.91;;;9.67
19061;BMP280;9663;48.996;8.334;2024-03-02T07:05:13;99071.28;;;9.71
19061;BMP280;9663;48.996;8.334;2024-03-02T07:07:38;99078.78;;;9.77
19061;BMP280;9663;48.996;8.334;2024-03-02T07:10:05;99083.84;;;9.77
19061;BMP280;9663;48.996;8.334;2024-03-02T07:12:33;99082.94;;;9.77
19061;BMP280;9663;48.996;8.334;2024-03-02T07:14:59;99095.53;;;9.82
19061;BMP280;9663;48.996;8.334;2024-03-02T07:17:33;99099.59;;;9.90
19061;BMP280;9663;48.996;8.334;2024-03-02T07:19:59;99102.88;;;9.97
19061;BMP280;9663;48.996;8.334;2024-03-02T07:22:25;99107.75;;;10.06
19061;BMP280;9663;48.996;8.334;2024-03-02T07:24:50;99090.63;;;10.17
19061;BMP280;9663;48.996;8.334;2024-03-02T07:27:17;99094.56;;;10.31
19061;BMP280;9663;48.996;8.334;2024-03-02T07:29:43;99090.75;;;10.50
19061;BMP280;9663;48.996;8.334;2024-03-02T07:32:10;99097.03;;;10.71
19061;BMP280;9663;48.996;8.334;2024-03-02T07:34:36;99089.66;;;10.96
19061;BMP280;9663;48.996;8.334;2024-03-02T07:37:03;99094.91;;;11.23
19061;BMP280;9663;48.996;8.334;2024-03-02T07:39:29;99076.56;;;11.47
19061;BMP280;9663;48.996;8.334;2024-03-02T07:41:55;99081.03;;;11.69
19061;BMP280;9663;48.996;8.334;2024-03-02T07:44:22;99076.19;;;11.90
19061;BMP280;9663;48.996;8.334;2024-03-02T07:46:51;99074.84;;;12.07
19061;BMP280;9663;48.996;8.334;2024-03-02T07:49:18;99070.16;;;12.23
19061;BMP280;9663;48.996;8.334;2024-03-02T07:51:44;99073.03;;;12.39
19061;BMP280;9663;48.996;8.334;2024-03-02T07:54:11;99075.06;;;12.56
19061;BMP280;9663;48.996;8.334;2024-03-02T07:56:37;99075.34;;;12.74
19061;BMP280;9663;48.996;8.334;2024-03-02T07:59:04;99074.75;;;12.93
19061;BMP280;9663;48.996;8.334;2024-03-02T08:01:31;99074.94;;;13.13
19061;BMP280;9663;48.996;8.334;2024-03-02T08:03:58;99077.66;;;13.33
19061;BMP280;9663;48.996;8.334;2024-03-02T08:06:26;99073.66;;;13.50
19061;BMP280;9663;48.996;8.334;2024-03-02T08:09:00;99072.94;;;13.71
19061;BMP280;9663;48.996;8.334;2024-03-02T08:11:27;99081.63;;;13.88
19061;BMP280;9663;48.996;8.334;2024-03-02T08:13:53;99076.75;;;14.07
19061;BMP280;9663;48.996;8.334;2024-03-02T08:16:22;99074.50;;;14.22
19061;BMP280;9663;48.996;8.334;2024-03-02T08:18:49;99083.06;;;14.42
19061;BMP280;9663;48.996;8.334;2024-03-02T08:21:16;99077.19;;;14.61
19061;BMP280;9663;48.996;8.334;2024-03-02T08:23:43;99073.13;;;14.77
19061;BMP280;9663;48.996;8.334;2024-03-02T08:26:10;99073.38;;;14.93
19061;BMP280;9663;48.996;8.334;2024-03-02T08:28:36;99081.25;;;15.08
19061;BMP280;9663;48.996;8.334;2024-03-02T08:31:08;99064.53;;;15.22
19061;BMP280;9663;48.996;8.334;2024-03-02T08:33:35;99058.91;;;15.34
19061;BMP280;9663;48.996;8.334;2024-03-02T08:36:00;99065.03;;;15.50
19061;BMP280;9663;48.996;8.334;2024-03-02T08:38:26;99055.91;;;15.64
19061;BMP280;9663;48.996;8.334;2024-03-02T08:40:52;99064.78;;;15.76
19061;BMP280;9663;48.996;8.334;2024-03-02T08:43:19;99047.22;;;15.86
19061;BMP280;9663;48.996;8.334;2024-03-02T08:45:45;99053.53;;;15.98
19061;BMP280;9663;48.996;8.334;2024-03-02T08:48:11;99055.53;;;16.10
19061;BMP280;9663;48.996;8.334;2024-03-02T08:50:37;99065.16;;;16.23
19061;BMP280;9663;48.996;8.334;2024-03-02T08:53:03;99045.88;;;16.34
19061;BMP280;9663;48.996;8.334;2024-03-02T08:55:29;99044.56;;;16.44
19061;BMP280;9663;48.996;8.334;2024-03-02T08:57:55;99051.75;;;16.55
19061;BMP280;9663;48.996;8.334;2024-03-02T09:00:22;99051.16;;;16.67
19061;BMP280;9663;48.996;8.334;2024-03-02T09:02:48;99048.78;;;16.80
19061;BMP280;9663;48.996;8.334;2024-03-02T09:05:14;99040.41;;;16.95
19061;BMP280;9663;48.996;8.334;2024-03-02T09:07:40;99043.09;;;17.09
19061;BMP280;9663;48.996;8.334;2024-03-02T09:10:07;99041.78;;;17.19
19061;BMP280;9663;48.996;8.334;2024-03-02T09:12:33;99034.31;;;17.31
19061;BMP280;9663;48.996;8.334;2024-03-02T09:15:01;99044.69;;;17.45
19061;BMP280;9663;48.996;8.334;2024-03-02T09:17:27;99043.25;;;17.56
19061;BMP280;9663;48.996;8.334;2024-03-02T09:19:52;99044.59;;;17.63
19061;BMP280;9663;48.996;8.334;2024-03-02T09:22:19;99048.41;;;17.72
19061;BMP280;9663;48.996;8.334;2024-03-02T09:24:45;99037.13;;;17.76
19061;BMP280;9663;48.996;8.334;2024-03-02T09:27:11;99034.28;;;17.80
19061;BMP280;9663;48.996;8.334;2024-03-02T09:29:37;99032.50;;;17.82
19061;BMP280;9663;48.996;8.334;2024-03-02T09:32:03;99030.69;;;17.84
19061;BMP280;9663;48.996;8.334;2024-03-02T09:34:29;99042.28;;;17.91
19061;BMP280;9663;48.996;8.334;2024-03-02T09:36:54;99035.97;;;17.96
19061;BMP280;9663;48.996;8.334;2024-03-02T09:39:20;99030.63;;;18.01
19061;BMP280;9663;48.996;8.334;2024-03-02T09:41:47;99032.78;;;18.08
19061;BMP280;9663;48.996;8.334;2024-03-02T09:44:14;99025.44;;;18.18
19061;BMP280;9663;48.996;8.334;2024-03-02T09:46:39;99025.06;;;18.25
19061;BMP280;9663;48.996;8.334;2024-03-02T09:49:06;99030.44;;;18.36
19061;BMP280;9663;48.996;8.334;2024-03-02T09:51:32;99029.13;;;18.44
19061;BMP280;9663;48.996;8.334;2024-03-02T09:54:00;99024.19;;;18.55
19061;BMP280;9663;48.996;8.334;2024-03-02T09:56:26;99033.91;;;18.66
19061;BMP280;9663;48.996;8.334;2024-03-02T09:58:52;99025.34;;;18.81
19061;BMP280;9663;48.996;8.334;2024-03-02T10:01:17;99021.34;;;18.90
19061;BMP280;9663;48.996;8.334;2024-03-02T10:03:44;99029.38;;;19.00
19061;BMP280;9663;48.996;8.334;2024-03-02T10:06:25;99017.09;;;19.05
19061;BMP280;9663;48.996;8.334;2024-03-02T10:08:52;99027.59;;;19.16
19061;BMP280;9663;48.996;8.334;2024-03-02T10:11:34;99017.78;;;19.22
19061;BMP280;9663;48.996;8.334;2024-03-02T10:14:07;99016.00;;;19.38
19061;BMP280;9663;48.996;8.334;2024-03-02T10:16:37;99012.59;;;19.51
19061;BMP280;9663;48.996;8.334;2024-03-02T10:19:23;99006.91;;;19.60
19061;BMP280;9663;48.996;8.334;2024-03-02T10:21:53;99011.69;;;19.80
19061;BMP280;9663;48.996;8.334;2024-03-02T10:24:21;99002.16;;;19.96
19061;BMP280;9663;48.996;8.334;2024-03-02T10:26:48;99010.06;;;20.07
19061;BMP280;9663;48.996;8.334;2024-03-02T10:29:15;99010.31;;;20.16
19061;BMP280;9663;48.996;8.334;2024-03-02T10:31:44;99001.63;;;20.31
19061;BMP280;9663;48.996;8.334;2024-03-02T10:34:12;98998.00;;;20.47
19061;BMP280;9663;48.996;8.334;2024-03-02T10:36:41;98997.16;;;20.60
19061;BMP280;9663;48.996;8.334;2024-03-02T10:39:08;98997.59;;;20.67
19061;BMP280;9663;48.996;8.334;2024-03-02T10:41:37;98995.34;;;20.75
19061;BMP280;9663;48.996;8.334;2024-03-02T10:44:08;98980.22;;;20.83
19061;BMP280;9663;48.996;8.334;2024-03-02T10:46:37;98986.53;;;20.91
19061;BMP280;9663;48.996;8.334;2024-03-02T10:49:05;98969.28;;;21.30
19061;BMP280;9663;48.996;8.334;2024-03-02T10:51:34;98968.63;;;21.14
19061;BMP280;9663;48.996;8.334;2024-03-02T10:54:03;98966.16;;;21.25
19061;BMP280;9663;48.996;8.334;2024-03-02T10:56:37;98960.94;;;21.39
19061;BMP280;9663;48.996;8.334;2024-03-02T10:59:22;98949.59;;;21.54
19061;BMP280;9663;48.996;8.334;2024-03-02T11:01:51;98960.50;;;21.70
19061;BMP280;9663;48.996;8.334;2024-03-02T11:04:20;98951.09;;;21.81
19061;BMP280;9663;48.996;8.334;2024-03-02T11:06:51;98955.75;;;21.88
19061;BMP280;9663;48.996;8.334;2024-03-02T11:09:25;98948.06;;;21.99
19061;BMP280;9663;48.996;8.334;2024-03-02T11:12:06;98947.53;;;22.07
19061;BMP280;9663;48.996;8.334;2024-03-02T11:14:33;98949.97;;;22.21
19061;BMP280;9663;48.996;8.334;2024-03-02T11:17:02;98946.56;;;22.32
19061;BMP280;9663;48.996;8.334;2024-03-02T11:19:30;98944.56;;;22.36
19061;BMP280;9663;48.996;8.334;2024-03-02T11:21:57;98940.00;;;22.39
19061;BMP280;9663;48.996;8.334;2024-03-02T11:27:03;98934.44;;;22.56
19061;BMP280;9663;48.996;8.334;2024-03-02T11:32:03;98922.53;;;22.77
19061;BMP280;9663;48.996;8.334;2024-03-02T11:34:31;98915.03;;;23.08
19061;BMP280;9663;48.996;8.334;2024-03-02T11:36:58;98912.69;;;24.03
19061;BMP280;9663;48.996;8.334;2024-03-02T11:39:29;98909.34;;;25.55
19061;BMP280;9663;48.996;8.334;2024-03-02T11:41:59;98892.09;;;26.98
19061;BMP280;9663;48.996;8.334;2024-03-02T11:44:27;98890.44;;;28.05
19061;BMP280;9663;48.996;8.334;2024-03-02T11:46:59;98876.50;;;29.01
19061;BMP280;9663;48.996;8.334;2024-03-02T11:49:44;98872.91;;;29.93
19061;BMP280;9663;48.996;8.334;2024-03-02T11:52:14;98857.53;;;30.87
19061;BMP280;9663;48.996;8.334;2024-03-02T11:54:47;98854.88;;;31.64
19061;BMP280;9663;48.996;8.334;2024-03-02T11:57:19;98852.38;;;32.09
19061;BMP280;9663;48.996;8.334;2024-03-02T11:59:45;98848.38;;;32.43
19061;BMP280;9663;48.996;8.334;2024-03-02T12:02:20;98843.13;;;32.65
19061;BMP280;9663;48.996;8.334;2024-03-02T12:04:47;98840.59;;;33.08
19061;BMP280;9663;48.996;8.334;2024-03-02T12:07:23;98841.03;;;33.69
19061;BMP280;9663;48.996;8.334;2024-03-02T12:09:59;98819.59;;;34.21
19061;BMP280;9663;48.996;8.334;2024-03-02T12:12:25;98827.09;;;34.59
19061;BMP280;9663;48.996;8.334;2024-03-02T12:14:53;98825.69;;;34.84
19061;BMP280;9663;48.996;8.334;2024-03-02T12:17:22;98819.84;;;35.22
19061;BMP280;9663;48.996;8.334;2024-03-02T12:19:48;98824.06;;;35.50
19061;BMP280;9663;48.996;8.334;2024-03-02T12:22:14;98824.84;;;35.85
19061;BMP280;9663;48.996;8.334;2024-03-02T12:24:41;98825.13;;;36.15
19061;BMP280;9663;48.996;8.334;2024-03-02T12:27:07;98814.56;;;36.22
19061;BMP280;9663;48.996;8.334;2024-03-02T12:29:34;98804.88;;;36.29
19061;BMP280;9663;48.996;8.334;2024-03-02T12:32:00;98810.28;;;36.08
19061;BMP280;9663;48.996;8.334;2024-03-02T12:34:27;98809.59;;;35.80
19061;BMP280;9663;48.996;8.334;2024-03-02T12:36:53;98810.28;;;35.48
19061;BMP280;9663;48.996;8.334;2024-03-02T12:39:20;98811.16;;;35.28
19061;BMP280;9663;48.996;8.334;2024-03-02T12:41:47;98801.03;;;35.25
19061;BMP280;9663;48.996;8.334;2024-03-02T12:44:12;98805.59;;;35.44
19061;BMP280;9663;48.996;8.334;2024-03-02T12:46:38;98802.00;;;35.58
19061;BMP280;9663;48.996;8.334;2024-03-02T12:49:12;98788.81;;;35.64
19061;BMP280;9663;48.996;8.334;2024-03-02T12:51:40;98782.84;;;35.83
19061;BMP280;9663;48.996;8.334;2024-03-02T12:54:07;98773.72;;;35.98
19061;BMP280;9663;48.996;8.334;2024-03-02T12:56:35;98777.81;;;36.07
19061;BMP280;9663;48.996;8.334;2024-03-02T12:59:01;98776.59;;;36.16
19061;BMP280;9663;48.996;8.334;2024-03-02T13:01:27;98777.44;;;36.10
19061;BMP280;9663;48.996;8.334;2024-03-02T13:03:54;98777.00;;;36.13
19061;BMP280;9663;48.996;8.334;2024-03-02T13:06:24;98767.03;;;35.89
19061;BMP280;9663;48.996;8.334;2024-03-02T13:08:50;98765.31;;;35.63
19061;BMP280;9663;48.996;8.334;2024-03-02T13:11:16;98766.41;;;35.35
19061;BMP280;9663;48.996;8.334;2024-03-02T13:13:42;98764.44;;;35.09
19061;BMP280;9663;48.996;8.334;2024-03-02T13:16:12;98764.88;;;35.13
19061;BMP280;9663;48.996;8.334;2024-03-02T13:18:41;98759.47;;;35.27
19061;BMP280;9663;48.996;8.334;2024-03-02T13:21:08;98759.13;;;35.30
19061;BMP280;9663;48.996;8.334;2024-03-02T13:23:34;98761.81;;;35.09
19061;BMP280;9663;48.996;8.334;2024-03-02T13:26:00;98754.00;;;34.89
19061;BMP280;9663;48.996;8.334;2024-03-02T13:28:26;98752.50;;;35.13
19061;BMP280;9663;48.996;8.334;2024-03-02T13:30:52;98752.72;;;34.57
19061;BMP280;9663;48.996;8.334;2024-03-02T13:33:18;98752.59;;;34.17
19061;BMP280;9663;48.996;8.334;2024-03-02T13:35:51;98748.56;;;33.80
19061;BMP280;9663;48.996;8.334;2024-03-02T13:38:19;98745.63;;;33.54
19061;BMP280;9663;48.996;8.334;2024-03-02T13:40:45;98751.06;;;33.53
19061;BMP280;9663;48.996;8.334;2024-03-02T13:43:12;98755.84;;;33.00
19061;BMP280;9663;48.996;8.334;2024-03-02T13:45:38;98754.34;;;32.69
19061;BMP280;9663;48.996;8.334;2024-03-02T13:48:05;98754.66;;;32.15
19061;BMP280;9663;48.996;8.334;2024-03-02T13:50:31;98762.28;;;31.42
19061;BMP280;9663;48.996;8.334;2024-03-02T13:52:56;98760.84;;;30.69
19061;BMP280;9663;48.996;8.334;2024-03-02T13:55:22;98758.13;;;30.08
19061;BMP280;9663;48.996;8.334;2024-03-02T13:57:48;98760.09;;;29.49
19061;BMP280;9663;48.996;8.334;2024-03-02T14:00:16;98761.13;;;28.89
19061;BMP280;9663;48.996;8.334;2024-03-02T14:02:43;98758.69;;;28.45
19061;BMP280;9663;48.996;8.334;2024-03-02T14:05:09;98756.31;;;28.09
19061;BMP280;9663;48.996;8.334;2024-03-02T14:07:38;98744.53;;;28.23
19061;BMP280;9663;48.996;8.334;2024-03-02T14:10:04;98747.63;;;27.57
19061;BMP280;9663;48.996;8.334;2024-03-02T14:12:30;98748.88;;;27.26
19061;BMP280;9663;48.996;8.334;2024-03-02T14:14:56;98742.69;;;27.01
19061;BMP280;9663;48.996;8.334;2024-03-02T14:17:25;98743.97;;;26.78
19061;BMP280;9663;48.996;8.334;2024-03-02T14:19:50;98744.59;;;26.63
19061;BMP280;9663;48.996;8.334;2024-03-02T14:22:17;98740.53;;;26.41
19061;BMP280;9663;48.996;8.334;2024-03-02T14:24:43;98742.59;;;26.19
19061;BMP280;9663;48.996;8.334;2024-03-02T14:27:09;98737.81;;;25.96
19061;BMP280;9663;48.996;8.334;2024-03-02T14:29:35;98740.69;;;25.74